sensor_id;sensor_type;location;lat;lon;timestamp;temperature;humidity
72814;DHT22;60945;48.516;-2.768;2023-03-12T00:01:27;13.80;70.30
72814;DHT22;60945;48.516;-2.768;2023-03-12T00:03:55;13.80;71.10
72814;DHT22;60945;48.516;-2.768;2023-03-12T00:06:21;14.00;70.90
72814;DHT22;60945;48.516;-2.768;2023-03-12T00:08:47;14.00;70.60
72814;DHT22;60945;48.516;-2.768;2023-03-12T00:11:16;14.00;70.20
72814;DHT22;60945;48.516;-2.768;2023-03-12T00:13:42;13.80;71.40
72814;DHT22;60945;48.516;-2.768;2023-03-12T00:16:11;13.80;71.70
72814;DHT22;60945;48.516;-2.768;2023-03-12T00:18:38;14.00;71.30
72814;DHT22;60945;48.516;-2.768;2023-03-12T00:21:04;14.00;71.70
72814;DHT22;60945;48.516;-2.768;2023-03-12T00:23:30;13.80;71.00
72814;DHT22;60945;48.516;-2.768;2023-03-12T00:26:08;13.70;71.20
72814;DHT22;60945;48.516;-2.768;2023-03-12T00:28:35;13.60;72.60
72814;DHT22;60945;48.516;-2.768;2023-03-12T00:31:01;13.60;73.30
72814;DHT22;60945;48.516;-2.768;2023-03-12T00:33:30;13.60;73.60
72814;DHT22;60945;48.516;-2.768;2023-03-12T00:35:59;13.70;73.00
72814;DHT22;60945;48.516;-2.768;2023-03-12T00:38:24;13.60;72.50
72814;DHT22;60945;48.516;-2.768;2023-03-12T00:40:50;13.40;72.40
72814;DHT22;60945;48.516;-2.768;2023-03-12T00:43:15;13.40;72.70
72814;DHT22;60945;48.516;-2.768;2023-03-12T00:45:41;13.50;72.90
72814;DHT22;60945;48.516;-2.768;2023-03-12T00:48:07;13.70;72.10
72814;DHT22;60945;48.516;-2.768;2023-03-12T00:50:32;13.70;72.10
72814;DHT22;60945;48.516;-2.768;2023-03-12T00:52:58;13.60;72.40
72814;DHT22;60945;48.516;-2.768;2023-03-12T00:55:23;13.60;72.90
72814;DHT22;60945;48.516;-2.768;2023-03-12T00:57:49;13.70;72.40
72814;DHT22;60945;48.516;-2.768;2023-03-12T01:00:15;13.30;72.40
72814;DHT22;60945;48.516;-2.768;2023-03-12T01:02:41;13.10;73.10
72814;DHT22;60945;48.516;-2.768;2023-03-12T01:05:09;13.10;73.70
72814;DHT22;60945;48.516;-2.768;2023-03-12T01:07:35;13.00;74.30
72814;DHT22;60945;48.516;-2.768;2023-03-12T01:10:01;12.80;74.60
72814;DHT22;60945;48.516;-2.768;2023-03-12T01:12:26;12.80;74.60
72814;DHT22;60945;48.516;-2.768;2023-03-12T01:14:52;12.70;75.10
72814;DHT22;60945;48.516;-2.768;2023-03-12T01:17:18;12.70;75.40
72814;DHT22;60945;48.516;-2.768;2023-03-12T01:19:43;12.80;74.90
72814;DHT22;60945;48.516;-2.768;2023-03-12T01:22:09;12.70;75.00
72814;DHT22;60945;48.516;-2.768;2023-03-12T01:24:35;12.80;74.80
72814;DHT22;60945;48.516;-2.768;2023-03-12T01:27:00;12.80;74.30
72814;DHT22;60945;48.516;-2.768;2023-03-12T01:29:26;12.60;75.10
72814;DHT22;60945;48.516;-2.768;2023-03-12T01:31:52;12.50;75.60
72814;DHT22;60945;48.516;-2.768;2023-03-12T01:34:17;12.60;75.40
72814;DHT22;60945;48.516;-2.768;2023-03-12T01:36:43;12.60;75.70
72814;DHT22;60945;48.516;-2.768;2023-03-12T01:39:10;12.80;74.30
72814;DHT22;60945;48.516;-2.768;2023-03-12T01:41:36;12.60;74.50
72814;DHT22;60945;48.516;-2.768;2023-03-12T01:44:03;12.50;75.00
72814;DHT22;60945;48.516;-2.768;2023-03-12T01:46:38;12.60;75.20
72814;DHT22;60945;48.516;-2.768;2023-03-12T01:52:14;12.80;74.60
72814;DHT22;60945;48.516;-2.768;2023-03-12T01:54:48;12.80;74.10
72814;DHT22;60945;48.516;-2.768;2023-03-12T01:57:19;13.00;73.80
72814;DHT22;60945;48.516;-2.768;2023-03-12T01:59:49;13.10;73.10
72814;DHT22;60945;48.516;-2.768;2023-03-12T02:02:16;13.20;73.20
72814;DHT22;60945;48.516;-2.768;2023-03-12T02:04:45;13.30;72.90
72814;DHT22;60945;48.516;-2.768;2023-03-12T02:07:15;13.40;72.80
72814;DHT22;60945;48.516;-2.768;2023-03-12T02:09:45;13.20;72.30
72814;DHT22;60945;48.516;-2.768;2023-03-12T02:12:12;13.10;72.30
72814;DHT22;60945;48.516;-2.768;2023-03-12T02:14:41;13.20;71.90
72814;DHT22;60945;48.516;-2.768;2023-03-12T02:17:08;13.10;72.40
72814;DHT22;60945;48.516;-2.768;2023-03-12T02:22:23;13.00;73.70
72814;DHT22;60945;48.516;-2.768;2023-03-12T02:24:59;13.00;73.20
72814;DHT22;60945;48.516;-2.768;2023-03-12T02:27:30;13.10;72.60
72814;DHT22;60945;48.516;-2.768;2023-03-12T02:29:57;13.00;72.80
72814;DHT22;60945;48.516;-2.768;2023-03-12T02:32:26;12.90;73.10
72814;DHT22;60945;48.516;-2.768;2023-03-12T02:34:52;12.80;73.30
72814;DHT22;60945;48.516;-2.768;2023-03-12T02:37:19;12.80;73.90
72814;DHT22;60945;48.516;-2.768;2023-03-12T02:40:12;12.60;73.80
72814;DHT22;60945;48.516;-2.768;2023-03-12T02:42:34;12.50;74.50
72814;DHT22;60945;48.516;-2.768;2023-03-12T02:45:01;12.40;74.60
72814;DHT22;60945;48.516;-2.768;2023-03-12T02:47:27;12.60;74.20
72814;DHT22;60945;48.516;-2.768;2023-03-12T02:49:53;12.50;73.90
72814;DHT22;60945;48.516;-2.768;2023-03-12T02:52:18;12.30;74.10
72814;DHT22;60945;48.516;-2.768;2023-03-12T02:54:44;12.30;74.30
72814;DHT22;60945;48.516;-2.768;2023-03-12T02:57:10;12.20;74.20
72814;DHT22;60945;48.516;-2.768;2023-03-12T02:59:35;12.20;73.90
72814;DHT22;60945;48.516;-2.768;2023-03-12T03:02:01;12.20;74.40
72814;DHT22;60945;48.516;-2.768;2023-03-12T03:04:28;12.30;73.70
72814;DHT22;60945;48.516;-2.768;2023-03-12T03:06:54;12.10;74.10
72814;DHT22;60945;48.516;-2.768;2023-03-12T03:09:20;12.10;74.00
72814;DHT22;60945;48.516;-2.768;2023-03-12T03:11:48;12.00;74.30
72814;DHT22;60945;48.516;-2.768;2023-03-12T03:14:13;12.00;74.50
72814;DHT22;60945;48.516;-2.768;2023-03-12T03:16:39;12.00;74.10
72814;DHT22;60945;48.516;-2.768;2023-03-12T03:19:05;11.90;74.10
72814;DHT22;60945;48.516;-2.768;2023-03-12T03:21:31;11.80;74.80
72814;DHT22;60945;48.516;-2.768;2023-03-12T03:23:57;11.80;74.70
72814;DHT22;60945;48.516;-2.768;2023-03-12T03:26:23;11.80;74.60
72814;DHT22;60945;48.516;-2.768;2023-03-12T03:28:49;11.60;75.20
72814;DHT22;60945;48.516;-2.768;2023-03-12T03:31:15;11.70;75.00
72814;DHT22;60945;48.516;-2.768;2023-03-12T03:33:41;11.60;75.10
72814;DHT22;60945;48.516;-2.768;2023-03-12T03:36:09;11.50;75.30
72814;DHT22;60945;48.516;-2.768;2023-03-12T03:38:35;11.40;75.70
72814;DHT22;60945;48.516;-2.768;2023-03-12T03:41:01;11.50;75.70
72814;DHT22;60945;48.516;-2.768;2023-03-12T03:43:26;11.50;76.20
72814;DHT22;60945;48.516;-2.768;2023-03-12T03:46:00;11.50;75.50
72814;DHT22;60945;48.516;-2.768;2023-03-12T03:48:26;11.50;75.40
72814;DHT22;60945;48.516;-2.768;2023-03-12T03:50:52;11.40;76.00
72814;DHT22;60945;48.516;-2.768;2023-03-12T03:53:18;11.40;75.90
72814;DHT22;60945;48.516;-2.768;2023-03-12T03:55:45;11.40;75.90
72814;DHT22;60945;48.516;-2.768;2023-03-12T03:58:11;11.40;76.00
72814;DHT22;60945;48.516;-2.768;2023-03-12T04:00:37;11.30;75.80
72814;DHT22;60945;48.516;-2.768;2023-03-12T04:03:03;11.30;75.60
72814;DHT22;60945;48.516;-2.768;2023-03-12T04:05:29;11.30;75.80
72814;DHT22;60945;48.516;-2.768;2023-03-12T04:07:55;11.30;75.90
72814;DHT22;60945;48.516;-2.768;2023-03-12T04:10:22;11.30;75.50
72814;DHT22;60945;48.516;-2.768;2023-03-12T04:12:48;11.30;75.30
72814;DHT22;60945;48.516;-2.768;2023-03-12T04:15:14;11.20;76.00
72814;DHT22;60945;48.516;-2.768;2023-03-12T04:17:40;11.10;76.30
72814;DHT22;60945;48.516;-2.768;2023-03-12T04:20:06;11.10;76.30
72814;DHT22;60945;48.516;-2.768;2023-03-12T04:22:34;11.10;76.60
72814;DHT22;60945;48.516;-2.768;2023-03-12T04:25:00;11.10;76.30
72814;DHT22;60945;48.516;-2.768;2023-03-12T04:27:25;11.10;76.70
72814;DHT22;60945;48.516;-2.768;2023-03-12T04:29:51;11.20;76.20
72814;DHT22;60945;48.516;-2.768;2023-03-12T04:32:17;11.10;75.80
72814;DHT22;60945;48.516;-2.768;2023-03-12T04:34:42;11.00;76.70
72814;DHT22;60945;48.516;-2.768;2023-03-12T04:37:08;11.00;76.70
72814;DHT22;60945;48.516;-2.768;2023-03-12T04:39:41;11.10;76.70
72814;DHT22;60945;48.516;-2.768;2023-03-12T04:42:08;11.10;76.50
72814;DHT22;60945;48.516;-2.768;2023-03-12T04:44:34;11.00;76.20
72814;DHT22;60945;48.516;-2.768;2023-03-12T04:47:00;11.00;76.70
72814;DHT22;60945;48.516;-2.768;2023-03-12T04:49:26;11.10;76.40
72814;DHT22;60945;48.516;-2.768;2023-03-12T04:51:52;11.10;76.20
72814;DHT22;60945;48.516;-2.768;2023-03-12T04:54:19;11.00;76.10
72814;DHT22;60945;48.516;-2.768;2023-03-12T04:56:46;11.00;76.50
72814;DHT22;60945;48.516;-2.768;2023-03-12T04:59:12;10.90;76.60
72814;DHT22;60945;48.516;-2.768;2023-03-12T05:01:38;10.80;77.10
72814;DHT22;60945;48.516;-2.768;2023-03-12T05:04:04;10.90;77.10
72814;DHT22;60945;48.516;-2.768;2023-03-12T05:06:30;10.80;76.90
72814;DHT22;60945;48.516;-2.768;2023-03-12T05:08:56;10.70;77.90
72814;DHT22;60945;48.516;-2.768;2023-03-12T05:11:22;10.90;77.00
72814;DHT22;60945;48.516;-2.768;2023-03-12T05:13:48;10.80;77.70
72814;DHT22;60945;48.516;-2.768;2023-03-12T05:16:15;10.70;78.10
72814;DHT22;60945;48.516;-2.768;2023-03-12T05:18:41;10.70;77.80
72814;DHT22;60945;48.516;-2.768;2023-03-12T05:21:13;10.70;78.00
72814;DHT22;60945;48.516;-2.768;2023-03-12T05:23:39;10.80;77.60
72814;DHT22;60945;48.516;-2.768;2023-03-12T05:26:23;10.80;77.30
72814;DHT22;60945;48.516;-2.768;2023-03-12T05:28:49;10.80;77.40
72814;DHT22;60945;48.516;-2.768;2023-03-12T05:31:16;10.70;78.00
72814;DHT22;60945;48.516;-2.768;2023-03-12T05:33:43;10.70;77.50
72814;DHT22;60945;48.516;-2.768;2023-03-12T05:36:09;10.70;77.60
72814;DHT22;60945;48.516;-2.768;2023-03-12T05:38:35;10.70;77.60
72814;DHT22;60945;48.516;-2.768;2023-03-12T05:41:01;10.70;77.60
72814;DHT22;60945;48.516;-2.768;2023-03-12T05:43:28;10.70;77.40
72814;DHT22;60945;48.516;-2.768;2023-03-12T05:45:57;10.60;78.20
72814;DHT22;60945;48.516;-2.768;2023-03-12T05:48:24;10.70;77.50
72814;DHT22;60945;48.516;-2.768;2023-03-12T05:50:49;10.60;77.50
72814;DHT22;60945;48.516;-2.768;2023-03-12T05:53:15;10.60;77.90
72814;DHT22;60945;48.516;-2.768;2023-03-12T05:55:41;10.80;76.90
72814;DHT22;60945;48.516;-2.768;2023-03-12T05:58:07;10.60;77.80
72814;DHT22;60945;48.516;-2.768;2023-03-12T06:00:34;10.80;76.90
72814;DHT22;60945;48.516;-2.768;2023-03-12T06:03:04;10.70;77.40
72814;DHT22;60945;48.516;-2.768;2023-03-12T06:05:31;10.90;76.70
72814;DHT22;60945;48.516;-2.768;2023-03-12T06:07:57;10.80;76.60
72814;DHT22;60945;48.516;-2.768;2023-03-12T06:10:23;10.60;77.20
72814;DHT22;60945;48.516;-2.768;2023-03-12T06:12:48;10.70;76.70
72814;DHT22;60945;48.516;-2.768;2023-03-12T06:15:14;10.60;77.20
72814;DHT22;60945;48.516;-2.768;2023-03-12T06:17:39;10.70;77.20
72814;DHT22;60945;48.516;-2.768;2023-03-12T06:20:06;10.70;77.00
72814;DHT22;60945;48.516;-2.768;2023-03-12T06:22:32;10.60;77.60
72814;DHT22;60945;48.516;-2.768;2023-03-12T06:24:58;10.80;77.20
72814;DHT22;60945;48.516;-2.768;2023-03-12T06:27:32;10.60;77.60
72814;DHT22;60945;48.516;-2.768;2023-03-12T06:29:58;10.40;78.30
72814;DHT22;60945;48.516;-2.768;2023-03-12T06:32:24;10.50;78.50
72814;DHT22;60945;48.516;-2.768;2023-03-12T06:34:50;10.60;78.10
72814;DHT22;60945;48.516;-2.768;2023-03-12T06:37:16;10.70;77.80
72814;DHT22;60945;48.516;-2.768;2023-03-12T06:39:41;10.80;77.00
72814;DHT22;60945;48.516;-2.768;2023-03-12T06:42:07;10.80;77.00
72814;DHT22;60945;48.516;-2.768;2023-03-12T06:44:33;10.50;78.10
72814;DHT22;60945;48.516;-2.768;2023-03-12T06:46:58;10.50;78.00
72814;DHT22;60945;48.516;-2.768;2023-03-12T06:49:24;10.40;78.50
72814;DHT22;60945;48.516;-2.768;2023-03-12T06:51:51;10.50;79.00
72814;DHT22;60945;48.516;-2.768;2023-03-12T06:54:16;10.40;79.00
72814;DHT22;60945;48.516;-2.768;2023-03-12T06:56:42;10.60;78.20
72814;DHT22;60945;48.516;-2.768;2023-03-12T06:59:08;10.70;77.90
72814;DHT22;60945;48.516;-2.768;2023-03-12T07:01:33;10.70;77.70
72814;DHT22;60945;48.516;-2.768;2023-03-12T07:03:59;10.70;78.10
72814;DHT22;60945;48.516;-2.768;2023-03-12T07:06:25;10.50;78.00
72814;DHT22;60945;48.516;-2.768;2023-03-12T07:08:51;10.50;78.30
72814;DHT22;60945;48.516;-2.768;2023-03-12T07:11:17;10.80;77.50
72814;DHT22;60945;48.516;-2.768;2023-03-12T07:13:43;10.40;78.40
72814;DHT22;60945;48.516;-2.768;2023-03-12T07:16:09;10.60;78.70
72814;DHT22;60945;48.516;-2.768;2023-03-12T07:18:35;10.80;77.30
72814;DHT22;60945;48.516;-2.768;2023-03-12T07:21:01;10.70;77.40
72814;DHT22;60945;48.516;-2.768;2023-03-12T07:23:27;10.80;77.60
72814;DHT22;60945;48.516;-2.768;2023-03-12T07:25:53;11.20;76.20
72814;DHT22;60945;48.516;-2.768;2023-03-12T07:28:20;11.50;74.90
72814;DHT22;60945;48.516;-2.768;2023-03-12T07:30:46;11.50;74.10
72814;DHT22;60945;48.516;-2.768;2023-03-12T07:33:19;11.50;75.50
72814;DHT22;60945;48.516;-2.768;2023-03-12T07:35:46;11.80;73.80
72814;DHT22;60945;48.516;-2.768;2023-03-12T07:38:12;12.00;73.30
72814;DHT22;60945;48.516;-2.768;2023-03-12T07:40:38;11.90;73.40
72814;DHT22;60945;48.516;-2.768;2023-03-12T07:43:04;11.50;74.20
72814;DHT22;60945;48.516;-2.768;2023-03-12T07:45:38;11.60;75.00
72814;DHT22;60945;48.516;-2.768;2023-03-12T07:48:04;11.80;74.30
72814;DHT22;60945;48.516;-2.768;2023-03-12T07:50:31;12.30;73.10
72814;DHT22;60945;48.516;-2.768;2023-03-12T07:52:56;12.30;71.60
72814;DHT22;60945;48.516;-2.768;2023-03-12T07:55:22;12.30;72.20
72814;DHT22;60945;48.516;-2.768;2023-03-12T07:57:48;12.20;71.10
72814;DHT22;60945;48.516;-2.768;2023-03-12T08:00:17;11.90;73.10
72814;DHT22;60945;48.516;-2.768;2023-03-12T08:02:42;12.30;71.40
72814;DHT22;60945;48.516;-2.768;2023-03-12T08:05:08;12.50;71.10
72814;DHT22;60945;48.516;-2.768;2023-03-12T08:07:34;12.00;72.20
72814;DHT22;60945;48.516;-2.768;2023-03-12T08:10:05;12.20;71.80
72814;DHT22;60945;48.516;-2.768;2023-03-12T08:12:32;12.40;71.00
72814;DHT22;60945;48.516;-2.768;2023-03-12T08:14:57;12.40;70.80
72814;DHT22;60945;48.516;-2.768;2023-03-12T08:17:23;12.80;69.80
72814;DHT22;60945;48.516;-2.768;2023-03-12T08:19:49;13.30;68.30
72814;DHT22;60945;48.516;-2.768;2023-03-12T08:22:15;13.50;67.60
72814;DHT22;60945;48.516;-2.768;2023-03-12T08:24:40;13.90;66.40
72814;DHT22;60945;48.516;-2.768;2023-03-12T08:27:06;13.40;67.10
72814;DHT22;60945;48.516;-2.768;2023-03-12T08:29:31;13.50;66.70
72814;DHT22;60945;48.516;-2.768;2023-03-12T08:31:58;13.90;65.50
72814;DHT22;60945;48.516;-2.768;2023-03-12T08:34:23;13.90;65.60
72814;DHT22;60945;48.516;-2.768;2023-03-12T08:36:49;15.10;63.30
72814;DHT22;60945;48.516;-2.768;2023-03-12T08:39:15;16.00;60.50
72814;DHT22;60945;48.516;-2.768;2023-03-12T08:41:40;15.10;61.30
72814;DHT22;60945;48.516;-2.768;2023-03-12T08:44:06;16.00;60.10
72814;DHT22;60945;48.516;-2.768;2023-03-12T08:46:32;15.60;59.00
72814;DHT22;60945;48.516;-2.768;2023-03-12T08:49:00;15.90;60.50
72814;DHT22;60945;48.516;-2.768;2023-03-12T08:51:25;15.60;60.00
72814;DHT22;60945;48.516;-2.768;2023-03-12T08:53:51;16.10;59.50
72814;DHT22;60945;48.516;-2.768;2023-03-12T08:56:17;16.00;58.90
72814;DHT22;60945;48.516;-2.768;2023-03-12T08:58:42;16.60;58.50
72814;DHT22;60945;48.516;-2.768;2023-03-12T09:01:10;16.40;56.30
72814;DHT22;60945;48.516;-2.768;2023-03-12T09:03:36;15.30;60.20
72814;DHT22;60945;48.516;-2.768;2023-03-12T09:06:07;15.30;60.30
72814;DHT22;60945;48.516;-2.768;2023-03-12T09:08:38;15.40;60.80
72814;DHT22;60945;48.516;-2.768;2023-03-12T09:11:04;16.00;59.60
72814;DHT22;60945;48.516;-2.768;2023-03-12T09:13:29;16.60;57.80
72814;DHT22;60945;48.516;-2.768;2023-03-12T09:16:00;16.70;57.40
72814;DHT22;60945;48.516;-2.768;2023-03-12T09:18:26;16.40;57.00
72814;DHT22;60945;48.516;-2.768;2023-03-12T09:20:52;15.50;59.00
72814;DHT22;60945;48.516;-2.768;2023-03-12T09:23:18;15.60;59.80
72814;DHT22;60945;48.516;-2.768;2023-03-12T09:25:47;14.70;62.00
72814;DHT22;60945;48.516;-2.768;2023-03-12T09:28:13;14.70;63.60
72814;DHT22;60945;48.516;-2.768;2023-03-12T09:30:39;14.70;63.40
72814;DHT22;60945;48.516;-2.768;2023-03-12T09:33:05;15.40;60.80
72814;DHT22;60945;48.516;-2.768;2023-03-12T09:35:30;15.30;60.70
72814;DHT22;60945;48.516;-2.768;2023-03-12T09:37:57;16.00;59.80
72814;DHT22;60945;48.516;-2.768;2023-03-12T09:40:26;16.40;57.50
72814;DHT22;60945;48.516;-2.768;2023-03-12T09:45:48;16.40;57.00
72814;DHT22;60945;48.516;-2.768;2023-03-12T09:48:17;16.00;58.80
72814;DHT22;60945;48.516;-2.768;2023-03-12T09:50:49;16.10;58.40
72814;DHT22;60945;48.516;-2.768;2023-03-12T09:53:32;16.00;57.90
72814;DHT22;60945;48.516;-2.768;2023-03-12T09:56:02;16.20;58.00
72814;DHT22;60945;48.516;-2.768;2023-03-12T09:58:35;16.90;56.90
72814;DHT22;60945;48.516;-2.768;2023-03-12T10:23:02;18.50;52.20
72814;DHT22;60945;48.516;-2.768;2023-03-12T10:25:52;19.60;49.70
72814;DHT22;60945;48.516;-2.768;2023-03-12T10:28:21;21.10;46.00
72814;DHT22;60945;48.516;-2.768;2023-03-12T10:30:56;21.30;45.10
72814;DHT22;60945;48.516;-2.768;2023-03-12T10:33:35;19.10;50.80
72814;DHT22;60945;48.516;-2.768;2023-03-12T10:36:27;18.70;52.80
72814;DHT22;60945;48.516;-2.768;2023-03-12T10:38:54;17.80;54.40
72814;DHT22;60945;48.516;-2.768;2023-03-12T10:41:27;19.20;51.80
72814;DHT22;60945;48.516;-2.768;2023-03-12T10:43:54;19.30;52.10
72814;DHT22;60945;48.516;-2.768;2023-03-12T10:46:50;20.50;47.90
72814;DHT22;60945;48.516;-2.768;2023-03-12T10:49:22;19.60;48.10
72814;DHT22;60945;48.516;-2.768;2023-03-12T10:54:39;18.20;54.00
72814;DHT22;60945;48.516;-2.768;2023-03-12T10:57:06;17.50;54.00
72814;DHT22;60945;48.516;-2.768;2023-03-12T10:59:40;17.30;55.70
72814;DHT22;60945;48.516;-2.768;2023-03-12T11:05:00;16.30;58.70
72814;DHT22;60945;48.516;-2.768;2023-03-12T11:07:34;16.80;58.00
72814;DHT22;60945;48.516;-2.768;2023-03-12T11:10:14;17.70;56.10
72814;DHT22;60945;48.516;-2.768;2023-03-12T11:12:51;17.80;54.70
72814;DHT22;60945;48.516;-2.768;2023-03-12T11:15:27;18.00;55.30
72814;DHT22;60945;48.516;-2.768;2023-03-12T11:18:23;17.10;56.50
72814;DHT22;60945;48.516;-2.768;2023-03-12T11:20:54;16.80;58.50
72814;DHT22;60945;48.516;-2.768;2023-03-12T11:23:25;16.40;58.50
72814;DHT22;60945;48.516;-2.768;2023-03-12T11:26:13;17.20;57.80
72814;DHT22;60945;48.516;-2.768;2023-03-12T11:28:42;18.60;53.50
72814;DHT22;60945;48.516;-2.768;2023-03-12T11:31:27;17.80;56.00
72814;DHT22;60945;48.516;-2.768;2023-03-12T11:34:02;17.50;56.30
72814;DHT22;60945;48.516;-2.768;2023-03-12T11:36:41;17.20;57.90
72814;DHT22;60945;48.516;-2.768;2023-03-12T11:39:38;18.00;55.80
72814;DHT22;60945;48.516;-2.768;2023-03-12T11:42:19;17.40;57.40
72814;DHT22;60945;48.516;-2.768;2023-03-12T11:47:51;18.20;54.90
72814;DHT22;60945;48.516;-2.768;2023-03-12T11:53:29;18.20;55.50
72814;DHT22;60945;48.516;-2.768;2023-03-12T11:56:25;17.50;57.70
72814;DHT22;60945;48.516;-2.768;2023-03-12T12:07:39;17.70;58.20
72814;DHT22;60945;48.516;-2.768;2023-03-12T12:10:27;17.40;58.90
72814;DHT22;60945;48.516;-2.768;2023-03-12T12:15:35;17.90;57.70
72814;DHT22;60945;48.516;-2.768;2023-03-12T12:31:55;16.40;62.70
72814;DHT22;60945;48.516;-2.768;2023-03-12T12:34:27;16.40;62.90
72814;DHT22;60945;48.516;-2.768;2023-03-12T12:39:49;16.40;63.30
72814;DHT22;60945;48.516;-2.768;2023-03-12T12:42:22;16.60;63.20
72814;DHT22;60945;48.516;-2.768;2023-03-12T12:44:52;17.30;60.60
72814;DHT22;60945;48.516;-2.768;2023-03-12T12:47:25;17.10;61.70
72814;DHT22;60945;48.516;-2.768;2023-03-12T12:49:57;17.80;59.60
72814;DHT22;60945;48.516;-2.768;2023-03-12T12:52:23;16.70;62.20
72814;DHT22;60945;48.516;-2.768;2023-03-12T12:55:06;16.50;63.50
72814;DHT22;60945;48.516;-2.768;2023-03-12T12:57:48;16.90;62.40
72814;DHT22;60945;48.516;-2.768;2023-03-12T13:02:48;17.60;61.00
72814;DHT22;60945;48.516;-2.768;2023-03-12T13:08:03;16.60;63.50
72814;DHT22;60945;48.516;-2.768;2023-03-12T13:13:02;16.70;63.70
72814;DHT22;60945;48.516;-2.768;2023-03-12T13:20:21;16.70;64.20
72814;DHT22;60945;48.516;-2.768;2023-03-12T13:30:53;16.80;64.30
72814;DHT22;60945;48.516;-2.768;2023-03-12T13:33:40;16.60;64.20
72814;DHT22;60945;48.516;-2.768;2023-03-12T13:36:18;16.60;64.20
72814;DHT22;60945;48.516;-2.768;2023-03-12T13:41:48;16.00;66.80
72814;DHT22;60945;48.516;-2.768;2023-03-12T13:49:53;15.50;68.70
72814;DHT22;60945;48.516;-2.768;2023-03-12T13:52:23;15.40;69.30
72814;DHT22;60945;48.516;-2.768;2023-03-12T14:00:17;15.20;70.10
72814;DHT22;60945;48.516;-2.768;2023-03-12T14:02:49;15.60;69.80
72814;DHT22;60945;48.516;-2.768;2023-03-12T14:05:17;15.80;68.60
72814;DHT22;60945;48.516;-2.768;2023-03-12T14:13:38;14.40;73.70
72814;DHT22;60945;48.516;-2.768;2023-03-12T14:16:21;14.80;73.40
72814;DHT22;60945;48.516;-2.768;2023-03-12T14:18:49;14.80;73.90
72814;DHT22;60945;48.516;-2.768;2023-03-12T14:21:18;15.20;73.00
72814;DHT22;60945;48.516;-2.768;2023-03-12T14:23:54;15.30;72.50
72814;DHT22;60945;48.516;-2.768;2023-03-12T14:26:27;14.90;73.40
72814;DHT22;60945;48.516;-2.768;2023-03-12T14:29:35;14.40;76.60
72814;DHT22;60945;48.516;-2.768;2023-03-12T14:32:11;14.60;75.90
72814;DHT22;60945;48.516;-2.768;2023-03-12T14:34:44;14.70;75.20
72814;DHT22;60945;48.516;-2.768;2023-03-12T14:37:15;14.90;75.50
72814;DHT22;60945;48.516;-2.768;2023-03-12T14:39:46;15.20;74.40
72814;DHT22;60945;48.516;-2.768;2023-03-12T14:42:39;15.00;75.10
72814;DHT22;60945;48.516;-2.768;2023-03-12T14:47:45;15.00;75.30
72814;DHT22;60945;48.516;-2.768;2023-03-12T14:50:23;14.70;75.80
72814;DHT22;60945;48.516;-2.768;2023-03-12T14:52:49;14.90;75.80
72814;DHT22;60945;48.516;-2.768;2023-03-12T14:55:19;14.80;76.10
72814;DHT22;60945;48.516;-2.768;2023-03-12T14:57:46;14.90;76.10
72814;DHT22;60945;48.516;-2.768;2023-03-12T15:00:24;15.00;75.60
72814;DHT22;60945;48.516;-2.768;2023-03-12T15:02:53;14.60;77.80
72814;DHT22;60945;48.516;-2.768;2023-03-12T15:05:20;14.90;76.80
72814;DHT22;60945;48.516;-2.768;2023-03-12T15:07:48;15.10;76.30
72814;DHT22;60945;48.516;-2.768;2023-03-12T15:10:19;15.10;76.20
72814;DHT22;60945;48.516;-2.768;2023-03-12T15:12:46;15.40;74.40
72814;DHT22;60945;48.516;-2.768;2023-03-12T15:15:38;15.10;75.30
72814;DHT22;60945;48.516;-2.768;2023-03-12T15:18:14;15.30;75.20
72814;DHT22;60945;48.516;-2.768;2023-03-12T15:20:40;15.20;75.00
72814;DHT22;60945;48.516;-2.768;2023-03-12T15:23:08;15.40;74.70
72814;DHT22;60945;48.516;-2.768;2023-03-12T15:25:34;15.50;73.40
72814;DHT22;60945;48.516;-2.768;2023-03-12T15:30:45;14.70;76.10
72814;DHT22;60945;48.516;-2.768;2023-03-12T15:33:21;14.90;76.20
72814;DHT22;60945;48.516;-2.768;2023-03-12T15:36:04;15.20;74.70
72814;DHT22;60945;48.516;-2.768;2023-03-12T15:38:33;15.00;75.90
72814;DHT22;60945;48.516;-2.768;2023-03-12T15:41:07;15.30;75.10
72814;DHT22;60945;48.516;-2.768;2023-03-12T15:43:33;15.10;75.20
72814;DHT22;60945;48.516;-2.768;2023-03-12T15:46:03;14.20;79.20
72814;DHT22;60945;48.516;-2.768;2023-03-12T15:48:40;14.30;78.70
72814;DHT22;60945;48.516;-2.768;2023-03-12T15:54:25;14.40;79.60
72814;DHT22;60945;48.516;-2.768;2023-03-12T15:56:52;14.50;79.70
72814;DHT22;60945;48.516;-2.768;2023-03-12T15:59:24;14.40;79.50
72814;DHT22;60945;48.516;-2.768;2023-03-12T16:01:52;14.20;80.20
72814;DHT22;60945;48.516;-2.768;2023-03-12T16:04:19;14.20;81.20
72814;DHT22;60945;48.516;-2.768;2023-03-12T16:06:46;14.10;81.10
72814;DHT22;60945;48.516;-2.768;2023-03-12T16:09:24;14.10;80.80
72814;DHT22;60945;48.516;-2.768;2023-03-12T16:11:53;14.00;81.80
72814;DHT22;60945;48.516;-2.768;2023-03-12T16:14:31;13.60;84.00
72814;DHT22;60945;48.516;-2.768;2023-03-12T16:17:01;13.80;83.40
72814;DHT22;60945;48.516;-2.768;2023-03-12T16:19:28;13.90;83.90
72814;DHT22;60945;48.516;-2.768;2023-03-12T16:21:54;13.90;82.60
72814;DHT22;60945;48.516;-2.768;2023-03-12T16:24:20;14.00;82.70
72814;DHT22;60945;48.516;-2.768;2023-03-12T16:26:54;13.90;83.70
72814;DHT22;60945;48.516;-2.768;2023-03-12T16:29:22;14.10;82.50
72814;DHT22;60945;48.516;-2.768;2023-03-12T16:31:54;14.00;81.40
72814;DHT22;60945;48.516;-2.768;2023-03-12T16:34:20;13.70;83.40
72814;DHT22;60945;48.516;-2.768;2023-03-12T16:36:45;13.80;83.20
72814;DHT22;60945;48.516;-2.768;2023-03-12T16:39:11;13.70;84.10
72814;DHT22;60945;48.516;-2.768;2023-03-12T16:41:37;14.00;83.70
72814;DHT22;60945;48.516;-2.768;2023-03-12T16:44:05;14.30;82.30
72814;DHT22;60945;48.516;-2.768;2023-03-12T16:46:32;14.20;83.00
72814;DHT22;60945;48.516;-2.768;2023-03-12T16:48:58;14.10;82.70
72814;DHT22;60945;48.516;-2.768;2023-03-12T16:51:24;14.10;82.80
72814;DHT22;60945;48.516;-2.768;2023-03-12T16:53:50;14.10;82.90
72814;DHT22;60945;48.516;-2.768;2023-03-12T16:56:18;14.50;81.60
72814;DHT22;60945;48.516;-2.768;2023-03-12T16:58:46;14.90;80.00
72814;DHT22;60945;48.516;-2.768;2023-03-12T17:01:16;14.50;80.50
72814;DHT22;60945;48.516;-2.768;2023-03-12T17:03:44;14.50;81.90
72814;DHT22;60945;48.516;-2.768;2023-03-12T17:06:20;14.70;80.50
72814;DHT22;60945;48.516;-2.768;2023-03-12T17:08:46;14.50;81.70
72814;DHT22;60945;48.516;-2.768;2023-03-12T17:13:46;14.30;82.20
72814;DHT22;60945;48.516;-2.768;2023-03-12T17:16:13;14.50;81.60
72814;DHT22;60945;48.516;-2.768;2023-03-12T17:18:39;14.90;80.30
72814;DHT22;60945;48.516;-2.768;2023-03-12T17:21:05;14.90;79.80
72814;DHT22;60945;48.516;-2.768;2023-03-12T17:23:32;14.60;80.70
72814;DHT22;60945;48.516;-2.768;2023-03-12T17:25:57;14.80;81.00
72814;DHT22;60945;48.516;-2.768;2023-03-12T17:28:24;14.60;81.30